地図

経路データ

SID SEASON NUMBER BASIN SUBBASIN NAME ISO_TIME NATURE LAT LON WMO_WIND WMO_PRES WMO_AGENCY TRACK_TYPE DIST2LAND LANDFALL IFLAG USA_AGENCY USA_ATCF_ID USA_LAT USA_LON USA_RECORD USA_STATUS USA_WIND USA_PRES USA_SSHS USA_R34_NE USA_R34_SE USA_R34_SW USA_R34_NW USA_R50_NE USA_R50_SE USA_R50_SW USA_R50_NW USA_R64_NE USA_R64_SE USA_R64_SW USA_R64_NW USA_POCI USA_ROCI USA_RMW USA_EYE TOKYO_LAT TOKYO_LON TOKYO_GRADE TOKYO_WIND TOKYO_PRES TOKYO_R50_DIR TOKYO_R50_LONG TOKYO_R50_SHORT TOKYO_R30_DIR TOKYO_R30_LONG TOKYO_R30_SHORT TOKYO_LAND CMA_LAT CMA_LON CMA_CAT CMA_WIND CMA_PRES HKO_LAT HKO_LON HKO_CAT HKO_WIND HKO_PRES NEWDELHI_LAT NEWDELHI_LON NEWDELHI_GRADE NEWDELHI_WIND NEWDELHI_PRES NEWDELHI_CI NEWDELHI_DP NEWDELHI_POCI REUNION_LAT REUNION_LON REUNION_TYPE REUNION_WIND REUNION_PRES REUNION_TNUM REUNION_CI REUNION_RMW REUNION_R34_NE REUNION_R34_SE REUNION_R34_SW REUNION_R34_NW REUNION_R50_NE REUNION_R50_SE REUNION_R50_SW REUNION_R50_NW REUNION_R64_NE REUNION_R64_SE REUNION_R64_SW REUNION_R64_NW BOM_LAT BOM_LON BOM_TYPE BOM_WIND BOM_PRES BOM_TNUM BOM_CI BOM_RMW BOM_R34_NE BOM_R34_SE BOM_R34_SW BOM_R34_NW BOM_R50_NE BOM_R50_SE BOM_R50_SW BOM_R50_NW BOM_R64_NE BOM_R64_SE BOM_R64_SW BOM_R64_NW BOM_ROCI BOM_POCI BOM_EYE BOM_POS_METHOD BOM_PRES_METHOD NADI_LAT NADI_LON NADI_CAT NADI_WIND NADI_PRES WELLINGTON_LAT WELLINGTON_LON WELLINGTON_WIND WELLINGTON_PRES DS824_LAT DS824_LON DS824_STAGE DS824_WIND DS824_PRES TD9636_LAT TD9636_LON TD9636_STAGE TD9636_WIND TD9636_PRES TD9635_LAT TD9635_LON TD9635_WIND TD9635_PRES TD9635_ROCI NEUMANN_LAT NEUMANN_LON NEUMANN_CLASS NEUMANN_WIND NEUMANN_PRES MLC_LAT MLC_LON MLC_CLASS MLC_WIND MLC_PRES USA_GUST BOM_GUST BOM_GUST_PER REUNION_GUST REUNION_GUST_PER USA_SEAHGT USA_SEARAD_NE USA_SEARAD_SE USA_SEARAD_SW USA_SEARAD_NW STORM_SPEED STORM_DIR
1988341N08090 1988 109 NI BB NOT_NAMED 1988-12-06 06:00:00 NR 8.20000 89.9000 main 654 654 O_________O___ jtwc_io IO051988 8.20000 89.9000 25 -1 8.20000 89.9000 1 25 4 350
1988341N08090 1988 109 NI BB NOT_NAMED 1988-12-06 09:00:00 NR 8.39114 89.8534 main 664 664 P_________P___ IO051988 8.39250 89.8525 25 -1 8.38978 89.8542 1 25 4 347
1988341N08090 1988 109 NI BB NOT_NAMED 1988-12-06 12:00:00 NR 8.60000 89.8000 main 684 684 O_________O___ jtwc_io IO051988 8.60000 89.8000 25 -1 8.60000 89.8000 1 25 5 346
1988341N08090 1988 109 NI BB NOT_NAMED 1988-12-06 15:00:00 NR 8.84029 89.7386 main 705 705 P_________P___ IO051988 8.83500 89.7425 27 -1 8.84557 89.7347 1 27 5 348
1988341N08090 1988 109 NI BB NOT_NAMED 1988-12-06 18:00:00 NR 9.10963 89.6893 main 722 722 O_________P___ jtwc_io IO051988 9.10000 89.7000 30 -1 9.11927 89.6787 1 30 6 354
1988341N08090 1988 109 NI BB NOT_NAMED 1988-12-06 21:00:00 NR 9.40041 89.6717 main 741 741 P_________P___ IO051988 9.39250 89.6850 32 -1 9.40832 89.6583 1 32 6 2
1988341N08090 1988 109 NI BB NOT_NAMED 1988-12-07 00:00:00 NR 9.70000 89.7000 main 760 760 O_________O___ jtwc_io IO051988 9.70000 89.7000 35 0 9.70000 89.7000 2 35 6 6
1988341N08090 1988 109 NI BB NOT_NAMED 1988-12-07 03:00:00 NR 10.0074 89.7461 main 781 772 P_________P___ IO051988 10.0074 89.6976 37 0 10.0073 89.7945 2 37 6 16
1988341N08090 1988 109 NI BB NOT_NAMED 1988-12-07 06:00:00 NR 10.3048 89.8786 main 785 745 O_________P___ jtwc_io IO051988 10.3000 89.8000 40 0 10.3097 89.9573 2 40 7 34
1988341N08090 1988 109 NI BB NOT_NAMED 1988-12-07 09:00:00 NR 10.5811 90.1407 main 745 701 P_________P___ IO051988 10.5800 90.0899 42 0 10.5822 90.1914 2 42 8 51
1988341N08090 1988 109 NI BB NOT_NAMED 1988-12-07 12:00:00 NR 10.8000 90.5000 main 701 666 O_________O___ jtwc_io IO051988 10.8000 90.5000 45 0 10.8000 90.5000 2 45 9 67
1988341N08090 1988 109 NI BB NOT_NAMED 1988-12-07 15:00:00 NR 10.9174 90.9392 main 666 627 P_________P___ IO051988 10.9300 90.9351 42 0 10.9048 90.9433 2 42 9 79
1988341N08090 1988 109 NI BB NOT_NAMED 1988-12-07 18:00:00 NR 10.9793 91.4227 main 627 601 O_________P___ jtwc_io IO051988 11.0000 91.4000 40 0 10.9585 91.4453 2 40 10 84
1988341N08090 1988 109 NI BB NOT_NAMED 1988-12-07 21:00:00 NR 11.0140 91.9061 main 601 573 P_________P___ IO051988 11.0201 91.8876 37 0 11.0079 91.9246 2 37 9 82
1988341N08090 1988 109 NI BB NOT_NAMED 1988-12-08 00:00:00 NR 11.1000 92.3000 main 573 544 O_________O___ jtwc_io IO051988 11.1000 92.3000 35 0 11.1000 92.3000 2 35 7 63
1988341N08090 1988 109 NI BB NOT_NAMED 1988-12-08 03:00:00 NR 11.3341 92.5428 main 544 508 P_________P___ IO051988 11.3774 92.5824 35 0 11.2908 92.5033 2 33 6 33
1988341N08090 1988 109 NI BB NOT_NAMED 1988-12-08 06:00:00 NR 11.6157 92.6454 main 508 488 O_________P___ jtwc_io IO051988 11.7000 92.7000 35 0 11.5314 92.5908 2 32 5 7
1988341N08090 1988 109 NI BB NOT_NAMED 1988-12-08 09:00:00 NR 11.8531 92.6177 main 477 462 P_________P___ IO051988 11.9000 92.6526 32 -1 11.8063 92.5829 2 31 5 343
1988341N08090 1988 109 NI BB NOT_NAMED 1988-12-08 12:00:00 NR 12.1000 92.5000 main 462 437 O_________O___ jtwc_io IO051988 12.1000 92.5000 30 -1 12.1000 92.5000 1 30 6 334
1988341N08090 1988 109 NI BB NOT_NAMED 1988-12-08 15:00:00 NR 12.3871 92.3544 main 437 420 P_________P___ IO051988 12.3750 92.3451 27 -1 12.3992 92.3637 1 27 7 334
1988341N08090 1988 109 NI BB NOT_NAMED 1988-12-08 18:00:00 NR 12.7000 92.2000 main 420 O_________O___ jtwc_io IO051988 12.7000 92.2000 25 -1 12.7000 92.2000 1 25 7 334

IBTrACS Databaseについて

本データベースは、米国NOAAが公開する1842年以降の世界の熱帯低気圧のベストトラックデータアーカイブInternational Best Track Archive for Climate Stewardship (IBTrACS)を、ウェブで閲覧しやすい形式に変換したものです。

最終更新日:2021-10-08